Terminal Aerodrome Forecast
Issued by NWS

Home | Current Version | Previous Version | Text Only | Print | Product List | Glossary On
Versions: 1 2 3 4 5 6 7 8 9 10 11 12 13 14 15 16
903
FTUS44 KLZK 231341 AAA
TAFHOT
TAF AMD
KHOT 231341Z 2314/2412 09008KT P6SM BKN025 BKN050 WS020/22035KT
      TEMPO 2314/2316 SCT025
     FM231600 12008G16KT P6SM BKN050 BKN250
     FM240100 13006KT P6SM SCT050 BKN250
     FM241000 16008G18KT P6SM VCSH BKN050 OVC150=

USA.gov is the U.S. government's official web portal to all federal, state and local government web resources and services.